createdAt,value
2023-02-23T00:01:39.425Z,7.35
2023-02-23T00:04:07.264Z,7.20
2023-02-23T00:06:36.640Z,7.27
2023-02-23T00:09:10.740Z,7.52
2023-02-23T00:11:39.497Z,7.53
2023-02-23T00:14:08.243Z,7.46
2023-02-23T00:16:37.364Z,7.28
2023-02-23T00:19:08.014Z,7.11
2023-02-23T00:21:35.848Z,6.97
2023-02-23T00:24:06.194Z,6.90
2023-02-23T00:26:35.129Z,6.82
2023-02-23T00:29:08.238Z,7.00
2023-02-23T00:31:35.956Z,7.16
2023-02-23T00:34:04.451Z,7.16
2023-02-23T00:36:33.813Z,7.12
2023-02-23T00:39:03.563Z,7.09
2023-02-23T00:41:30.969Z,7.08
2023-02-23T00:44:00.123Z,7.08
2023-02-23T00:46:31.091Z,6.95
2023-02-23T00:49:00.356Z,6.82
2023-02-23T00:51:30.898Z,6.97
2023-02-23T00:54:00.384Z,6.91
2023-02-23T00:56:28.552Z,6.92
2023-02-23T00:58:56.645Z,6.85
2023-02-23T01:01:24.419Z,7.07
2023-02-23T01:03:53.974Z,7.06
2023-02-23T01:06:21.757Z,7.11
2023-02-23T01:08:51.386Z,7.32
2023-02-23T01:11:21.807Z,7.46
2023-02-23T01:13:52.950Z,7.52
2023-02-23T01:16:22.277Z,7.58
2023-02-23T01:18:50.386Z,7.63
2023-02-23T01:21:20.547Z,7.70
2023-02-23T01:23:48.242Z,7.74
2023-02-23T01:26:17.013Z,7.74
2023-02-23T01:28:44.439Z,7.84
2023-02-23T01:31:11.935Z,7.89
2023-02-23T01:33:39.318Z,7.96
2023-02-23T01:36:07.314Z,7.98
2023-02-23T01:38:35.910Z,8.05
2023-02-23T01:41:03.617Z,8.08
2023-02-23T01:43:31.015Z,8.08
2023-02-23T01:45:58.927Z,8.19
2023-02-23T01:48:31.273Z,8.14
2023-02-23T01:51:04.183Z,8.13
2023-02-23T01:53:35.793Z,8.20
2023-02-23T01:56:11.308Z,8.24
2023-02-23T01:58:40.051Z,8.27
2023-02-23T02:01:08.038Z,8.29
2023-02-23T02:03:39.229Z,8.34
2023-02-23T02:06:10.566Z,8.25
2023-02-23T02:08:44.932Z,8.37
2023-02-23T02:11:26.075Z,8.41
2023-02-23T02:13:54.817Z,8.42
2023-02-23T02:16:35.733Z,8.52
2023-02-23T02:19:25.231Z,8.47
2023-02-23T02:22:25.580Z,8.44
2023-02-23T02:25:19.796Z,8.54
2023-02-23T02:28:14.975Z,8.49
2023-02-23T02:30:59.134Z,8.56
2023-02-23T02:34:06.693Z,8.64
2023-02-23T02:36:57.316Z,8.60
2023-02-23T02:39:36.449Z,8.54
2023-02-23T02:42:15.643Z,8.56
2023-02-23T02:44:53.205Z,8.52
2023-02-23T02:47:28.096Z,8.56
2023-02-23T02:50:05.008Z,8.53
2023-02-23T02:52:36.639Z,8.51
2023-02-23T02:55:12.175Z,8.50
2023-02-23T02:57:41.018Z,8.35
2023-02-23T03:00:27.618Z,8.31
2023-02-23T03:03:12.341Z,8.28
2023-02-23T03:06:00.688Z,8.34
2023-02-23T03:08:56.128Z,8.39
2023-02-23T03:11:46.294Z,8.43
2023-02-23T03:14:42.809Z,8.38
2023-02-23T03:17:38.739Z,8.35
2023-02-23T03:20:33.115Z,8.36
2023-02-23T03:23:24.970Z,8.48
2023-02-23T03:26:21.009Z,8.53
2023-02-23T03:29:14.612Z,8.52
2023-02-23T03:32:06.894Z,8.48
2023-02-23T03:34:59.622Z,8.43
2023-02-23T03:37:49.880Z,8.34
2023-02-23T03:40:37.644Z,8.39
2023-02-23T03:43:26.351Z,8.38
2023-02-23T03:46:14.580Z,8.42
2023-02-23T03:49:01.777Z,8.34
2023-02-23T03:51:50.126Z,8.39
2023-02-23T03:54:39.081Z,8.45
2023-02-23T03:57:28.643Z,8.34
2023-02-23T04:00:19.222Z,8.46
2023-02-23T04:03:08.423Z,8.43
2023-02-23T04:05:56.272Z,8.41
2023-02-23T04:08:46.117Z,8.37
2023-02-23T04:11:37.405Z,8.48
2023-02-23T04:14:08.542Z,8.52
2023-02-23T04:16:39.565Z,8.49
2023-02-23T04:19:07.225Z,8.46
2023-02-23T04:21:34.591Z,8.55
2023-02-23T04:24:01.989Z,8.61
2023-02-23T04:26:29.369Z,8.53
2023-02-23T04:28:57.109Z,8.54
2023-02-23T04:31:26.089Z,8.52
2023-02-23T04:33:55.060Z,8.53
2023-02-23T04:36:24.171Z,8.54
2023-02-23T04:38:51.583Z,8.57
2023-02-23T04:41:20.149Z,8.67
2023-02-23T04:43:47.611Z,8.53
2023-02-23T04:46:15.244Z,8.43
2023-02-23T04:48:42.634Z,8.60
2023-02-23T04:51:11.319Z,8.52
2023-02-23T04:53:39.397Z,8.55
2023-02-23T04:56:07.385Z,8.48
2023-02-23T04:58:34.761Z,8.54
2023-02-23T05:01:06.237Z,8.50
2023-02-23T05:03:34.171Z,8.59
2023-02-23T05:06:01.537Z,8.51
2023-02-23T05:08:30.532Z,8.49
2023-02-23T05:10:58.035Z,8.46
2023-02-23T05:13:25.651Z,8.46
2023-02-23T05:15:57.526Z,8.46
2023-02-23T05:18:26.331Z,8.34
2023-02-23T05:20:53.859Z,8.35
2023-02-23T05:23:21.640Z,8.37
2023-02-23T05:25:50.339Z,8.43
2023-02-23T05:28:17.686Z,8.40
2023-02-23T05:30:45.369Z,8.40
2023-02-23T05:33:14.015Z,8.49
2023-02-23T05:35:41.555Z,8.39
2023-02-23T05:38:08.950Z,8.31
2023-02-23T05:40:37.230Z,8.22
2023-02-23T05:43:05.938Z,8.25
2023-02-23T05:45:34.200Z,8.23
2023-02-23T05:48:01.564Z,8.10
2023-02-23T05:50:29.451Z,8.16
2023-02-23T05:52:56.899Z,8.09
2023-02-23T05:55:24.418Z,8.07
2023-02-23T05:57:51.797Z,8.00
2023-02-23T06:00:21.210Z,7.98
2023-02-23T06:02:49.959Z,7.97
2023-02-23T06:05:17.622Z,7.86
2023-02-23T06:07:45.067Z,7.79
2023-02-23T06:10:13.234Z,7.77
2023-02-23T06:12:40.746Z,7.87
2023-02-23T06:15:08.660Z,7.79
2023-02-23T06:17:37.618Z,7.86
2023-02-23T06:20:07.289Z,7.84
2023-02-23T06:22:35.051Z,7.93
2023-02-23T06:25:04.558Z,7.99
2023-02-23T06:27:32.265Z,8.02
2023-02-23T06:29:59.696Z,8.09
2023-02-23T06:32:27.912Z,8.09
2023-02-23T06:34:56.629Z,8.10
2023-02-23T06:37:24.020Z,8.17
2023-02-23T06:39:51.409Z,8.17
2023-02-23T06:42:18.901Z,8.32
2023-02-23T06:44:46.662Z,8.34
2023-02-23T06:47:14.123Z,8.33
2023-02-23T06:49:41.487Z,8.30
2023-02-23T06:52:13.369Z,8.40
2023-02-23T06:54:41.720Z,8.40
2023-02-23T06:57:09.155Z,8.46
2023-02-23T06:59:37.460Z,8.61
2023-02-23T07:02:05.682Z,8.55
2023-02-23T07:04:34.029Z,8.55
2023-02-23T07:07:01.429Z,8.56
2023-02-23T07:09:30.778Z,8.56
2023-02-23T07:11:58.293Z,8.67
2023-02-23T07:14:27.151Z,8.70
2023-02-23T07:16:55.258Z,8.70
2023-02-23T07:19:23.332Z,8.80
2023-02-23T07:21:50.702Z,8.84
2023-02-23T07:24:18.141Z,8.90
2023-02-23T07:26:47.267Z,8.92
2023-02-23T07:29:14.754Z,8.91
2023-02-23T07:31:42.870Z,9.01
2023-02-23T07:34:10.427Z,9.11
2023-02-23T07:36:37.980Z,8.95
2023-02-23T07:39:05.770Z,9.07
2023-02-23T07:41:33.370Z,9.20
2023-02-23T07:44:02.185Z,9.27
2023-02-23T07:46:29.582Z,9.28
2023-02-23T07:48:56.965Z,9.34
2023-02-23T07:51:24.340Z,9.47
2023-02-23T07:53:51.765Z,9.58
2023-02-23T07:56:19.132Z,9.57
2023-02-23T07:58:46.574Z,9.63
2023-02-23T08:01:15.882Z,9.76
2023-02-23T08:03:49.357Z,9.70
2023-02-23T08:06:17.485Z,9.72
2023-02-23T08:08:45.189Z,9.82
2023-02-23T08:11:13.001Z,10.00
2023-02-23T08:13:40.564Z,10.11
2023-02-23T08:16:09.162Z,10.10
2023-02-23T08:18:37.898Z,10.14
2023-02-23T08:21:06.110Z,10.19
2023-02-23T08:23:34.038Z,10.28
2023-02-23T08:26:02.313Z,10.36
2023-02-23T08:28:31.206Z,10.53
2023-02-23T08:30:59.936Z,10.55
2023-02-23T08:33:27.805Z,10.59
2023-02-23T08:36:02.628Z,10.50
2023-02-23T08:38:31.457Z,10.61
2023-02-23T08:41:00.995Z,10.67
2023-02-23T08:43:28.445Z,10.86
2023-02-23T08:45:55.928Z,10.83
2023-02-23T08:48:24.376Z,11.00
2023-02-23T08:50:52.152Z,11.14
2023-02-23T08:53:22.949Z,11.34
2023-02-23T08:55:51.744Z,11.24
2023-02-23T08:58:19.143Z,11.34
2023-02-23T09:00:46.529Z,11.36
2023-02-23T09:03:13.882Z,11.36
2023-02-23T09:05:41.263Z,11.34
2023-02-23T09:08:08.725Z,11.48
2023-02-23T09:10:37.442Z,11.49
2023-02-23T09:13:04.889Z,11.47
2023-02-23T09:15:32.327Z,11.42
2023-02-23T09:18:01.357Z,11.40
2023-02-23T09:20:28.919Z,11.42
2023-02-23T09:22:56.316Z,11.55
2023-02-23T09:25:23.926Z,11.57
2023-02-23T09:27:54.364Z,11.68
2023-02-23T09:30:22.432Z,11.79
2023-02-23T09:32:50.215Z,11.82
2023-02-23T09:35:19.001Z,11.87
2023-02-23T09:37:47.577Z,11.97
2023-02-23T09:40:17.681Z,11.95
2023-02-23T09:42:50.695Z,12.15
2023-02-23T09:45:27.116Z,12.28
2023-02-23T09:48:09.388Z,12.26
2023-02-23T09:50:39.253Z,12.32
2023-02-23T09:53:14.077Z,12.43
2023-02-23T09:55:44.361Z,12.42
2023-02-23T09:58:21.794Z,12.73
2023-02-23T10:01:01.803Z,12.63
2023-02-23T10:03:32.625Z,12.82
2023-02-23T10:06:03.475Z,12.92
2023-02-23T10:08:47.282Z,12.98
2023-02-23T10:11:24.252Z,13.19
2023-02-23T10:14:03.199Z,13.06
2023-02-23T10:16:43.916Z,13.24
2023-02-23T10:19:20.217Z,13.65
2023-02-23T10:21:55.283Z,13.75
2023-02-23T10:24:28.297Z,14.00
2023-02-23T10:27:00.331Z,13.84
2023-02-23T10:29:33.267Z,13.77
2023-02-23T10:32:07.205Z,13.93
2023-02-23T10:34:36.916Z,13.85
2023-02-23T10:37:06.790Z,13.84
2023-02-23T10:39:34.739Z,14.00
2023-02-23T10:42:06.442Z,14.03
2023-02-23T10:44:33.980Z,14.03
2023-02-23T10:47:07.195Z,14.02
2023-02-23T10:49:42.072Z,14.03
2023-02-23T10:52:13.492Z,14.12
2023-02-23T10:54:44.512Z,14.07
2023-02-23T10:57:16.802Z,14.25
2023-02-23T11:00:07.323Z,14.17
2023-02-23T11:02:37.276Z,14.42
2023-02-23T11:05:07.188Z,14.44
2023-02-23T11:07:35.334Z,14.59
2023-02-23T11:10:25.277Z,14.66
2023-02-23T11:12:52.670Z,14.86
2023-02-23T11:15:46.557Z,15.16
2023-02-23T11:18:24.322Z,15.48
2023-02-23T11:20:52.591Z,15.48
2023-02-23T11:23:24.447Z,15.41
2023-02-23T11:25:55.729Z,15.58
2023-02-23T11:28:29.093Z,15.59
2023-02-23T11:30:58.129Z,15.63
2023-02-23T11:33:35.821Z,16.02
2023-02-23T11:36:15.075Z,16.11
2023-02-23T11:38:42.473Z,16.16
2023-02-23T11:41:21.503Z,16.22
2023-02-23T11:43:51.093Z,16.32
2023-02-23T11:46:21.698Z,16.61
2023-02-23T11:48:53.961Z,16.55
2023-02-23T11:51:30.405Z,16.70
2023-02-23T11:53:58.889Z,16.74
2023-02-23T11:56:28.557Z,16.69
2023-02-23T11:59:00.142Z,16.56
2023-02-23T12:01:41.650Z,16.57
2023-02-23T12:04:12.643Z,16.55
2023-02-23T12:06:42.594Z,16.38
2023-02-23T12:09:19.421Z,16.44
2023-02-23T12:11:52.118Z,16.35
2023-02-23T12:14:27.666Z,16.44
2023-02-23T12:17:01.880Z,16.37
2023-02-23T12:19:35.111Z,16.31
2023-02-23T12:22:07.080Z,16.24
2023-02-23T12:24:44.204Z,16.18
2023-02-23T12:27:16.717Z,16.29
2023-02-23T12:30:00.048Z,16.16
2023-02-23T12:32:33.781Z,16.19
2023-02-23T12:35:08.102Z,16.26
2023-02-23T12:37:40.404Z,16.10
2023-02-23T12:40:18.550Z,16.14
2023-02-23T12:42:56.545Z,16.01
2023-02-23T12:45:30.137Z,16.12
2023-02-23T12:48:07.408Z,16.15
2023-02-23T12:50:43.215Z,16.05
2023-02-23T12:53:20.711Z,16.27
2023-02-23T12:56:02.050Z,16.44
2023-02-23T12:58:37.223Z,16.60
2023-02-23T13:01:12.689Z,16.63
2023-02-23T13:04:13.555Z,16.64
2023-02-23T13:06:51.529Z,16.38
2023-02-23T13:09:31.878Z,16.40
2023-02-23T13:12:15.594Z,16.21
2023-02-23T13:14:50.889Z,16.11
2023-02-23T13:17:32.903Z,16.06
2023-02-23T13:20:05.140Z,16.20
2023-02-23T13:22:41.515Z,16.14
2023-02-23T13:25:25.210Z,16.13
2023-02-23T13:27:57.418Z,16.18
2023-02-23T13:30:24.815Z,16.26
2023-02-23T13:32:53.482Z,16.16
2023-02-23T13:35:21.890Z,16.10
2023-02-23T13:37:54.781Z,16.17
2023-02-23T13:40:32.373Z,16.01
2023-02-23T13:43:09.788Z,15.93
2023-02-23T13:45:48.661Z,15.90
2023-02-23T13:48:28.958Z,15.84
2023-02-23T13:51:02.308Z,15.62
2023-02-23T13:53:40.599Z,15.53
2023-02-23T13:56:10.898Z,15.31
2023-02-23T13:58:46.557Z,15.09
2023-02-23T14:01:18.510Z,15.01
2023-02-23T14:03:55.285Z,15.11
2023-02-23T14:06:25.583Z,15.08
2023-02-23T14:09:00.690Z,15.13
2023-02-23T14:11:30.723Z,15.17
2023-02-23T14:14:01.153Z,15.09
2023-02-23T14:16:28.593Z,15.03
2023-02-23T14:19:37.910Z,14.98
2023-02-23T14:22:10.217Z,14.66
2023-02-23T14:24:38.958Z,14.66
2023-02-23T14:27:40.365Z,14.87
2023-02-23T14:30:25.308Z,14.65
2023-02-23T14:32:54.542Z,14.66
2023-02-23T14:35:44.430Z,14.55
2023-02-23T14:38:18.554Z,14.56
2023-02-23T14:40:51.570Z,14.47
2023-02-23T14:43:33.592Z,14.43
2023-02-23T14:46:05.714Z,14.44
2023-02-23T14:48:36.580Z,14.33
2023-02-23T14:51:17.137Z,14.13
2023-02-23T14:53:44.601Z,14.15
2023-02-23T14:56:21.435Z,14.14
2023-02-23T14:58:53.227Z,14.07
2023-02-23T15:01:34.684Z,13.98
2023-02-23T15:04:10.451Z,13.99
2023-02-23T15:06:41.114Z,13.87
2023-02-23T15:09:17.339Z,13.79
2023-02-23T15:11:49.933Z,13.52
2023-02-23T15:14:27.498Z,13.31
2023-02-23T15:16:57.274Z,13.40
2023-02-23T15:19:34.972Z,13.31
2023-02-23T15:22:05.377Z,13.11
2023-02-23T15:24:41.063Z,12.86
2023-02-23T15:27:17.903Z,12.78
2023-02-23T15:29:45.782Z,12.78
2023-02-23T15:32:18.924Z,12.86
2023-02-23T15:34:46.861Z,12.91
2023-02-23T15:37:24.108Z,13.10
2023-02-23T15:39:54.730Z,13.19
2023-02-23T15:42:26.591Z,13.13
2023-02-23T15:45:01.278Z,13.35
2023-02-23T15:47:34.556Z,13.34
2023-02-23T15:50:07.418Z,13.26
2023-02-23T15:52:35.790Z,13.40
2023-02-23T15:55:08.081Z,13.23
2023-02-23T15:57:47.993Z,13.13
2023-02-23T16:00:23.376Z,13.27
2023-02-23T16:02:51.518Z,13.18
2023-02-23T16:05:21.499Z,13.08
2023-02-23T16:07:49.128Z,12.91
2023-02-23T16:10:23.110Z,13.03
2023-02-23T16:12:53.907Z,12.83
2023-02-23T16:15:27.067Z,12.77
2023-02-23T16:17:58.635Z,12.70
2023-02-23T16:20:35.540Z,12.92
2023-02-23T16:23:04.259Z,12.90
2023-02-23T16:25:34.079Z,12.74
2023-02-23T16:28:06.191Z,12.72
2023-02-23T16:30:40.401Z,12.78
2023-02-23T16:33:19.724Z,12.58
2023-02-23T16:35:49.747Z,12.41
2023-02-23T16:38:25.626Z,12.28
2023-02-23T16:40:53.193Z,12.26
2023-02-23T16:43:22.486Z,12.22
2023-02-23T16:45:50.239Z,12.38
2023-02-23T16:48:19.344Z,12.29
2023-02-23T16:50:47.716Z,12.32
2023-02-23T16:53:16.792Z,12.44
2023-02-23T16:55:49.908Z,12.30
2023-02-23T16:58:20.350Z,12.28
2023-02-23T17:00:49.109Z,12.26
2023-02-23T17:03:20.248Z,12.33
2023-02-23T17:05:48.244Z,12.34
2023-02-23T17:08:15.578Z,12.24
2023-02-23T17:10:46.615Z,12.10
2023-02-23T17:13:20.430Z,12.06
2023-02-23T17:15:51.745Z,12.00
2023-02-23T17:18:20.339Z,12.03
2023-02-23T17:20:49.417Z,12.07
2023-02-23T17:23:16.794Z,12.26
2023-02-23T17:25:44.522Z,12.30
2023-02-23T17:28:11.947Z,12.29
2023-02-23T17:30:42.542Z,12.50
2023-02-23T17:33:11.813Z,12.42
2023-02-23T17:35:39.240Z,12.51
2023-02-23T17:38:08.319Z,12.50
2023-02-23T17:40:37.771Z,12.41
2023-02-23T17:43:08.259Z,12.46
2023-02-23T17:45:35.691Z,12.30
2023-02-23T17:48:03.081Z,12.26
2023-02-23T17:50:31.974Z,12.32
2023-02-23T17:52:59.334Z,12.35
2023-02-23T17:55:26.768Z,12.28
2023-02-23T17:57:57.403Z,12.30
2023-02-23T18:00:24.964Z,12.24
2023-02-23T18:02:52.383Z,12.19
2023-02-23T18:05:20.071Z,12.16
2023-02-23T18:07:49.041Z,12.15
2023-02-23T18:10:17.329Z,12.21
2023-02-23T18:12:45.315Z,12.02
2023-02-23T18:15:14.418Z,12.02
2023-02-23T18:17:41.869Z,11.82
2023-02-23T18:20:13.920Z,11.84
2023-02-23T18:22:41.424Z,11.84
2023-02-23T18:25:20.840Z,11.79
2023-02-23T18:27:50.967Z,11.87
2023-02-23T18:30:18.604Z,11.78
2023-02-23T18:32:46.064Z,11.54
2023-02-23T18:35:13.747Z,11.42
2023-02-23T18:37:44.494Z,11.50
2023-02-23T18:40:21.664Z,11.49
2023-02-23T18:42:49.795Z,11.60
2023-02-23T18:45:18.050Z,11.65
2023-02-23T18:47:45.752Z,11.79
2023-02-23T18:50:19.352Z,11.81
2023-02-23T18:52:48.893Z,11.58
2023-02-23T18:55:18.367Z,11.36
2023-02-23T18:57:46.734Z,11.28
2023-02-23T19:00:15.914Z,11.45
2023-02-23T19:02:46.306Z,11.39
2023-02-23T19:05:15.190Z,11.54
2023-02-23T19:07:43.129Z,11.36
2023-02-23T19:10:12.873Z,11.34
2023-02-23T19:12:41.814Z,11.38
2023-02-23T19:15:10.482Z,11.08
2023-02-23T19:17:38.273Z,11.17
2023-02-23T19:20:12.789Z,11.27
2023-02-23T19:22:43.655Z,11.36
2023-02-23T19:25:15.141Z,11.48
2023-02-23T19:27:43.980Z,11.41
2023-02-23T19:30:13.604Z,11.27
2023-02-23T19:32:41.262Z,11.34
2023-02-23T19:35:14.641Z,11.40
2023-02-23T19:37:48.127Z,11.40
2023-02-23T19:40:16.597Z,11.31
2023-02-23T19:42:46.026Z,11.37
2023-02-23T19:45:13.885Z,11.43
2023-02-23T19:47:41.533Z,11.38
2023-02-23T19:50:10.703Z,11.45
2023-02-23T19:52:38.946Z,11.46
2023-02-23T19:55:07.738Z,11.49
2023-02-23T19:57:35.151Z,11.45
2023-02-23T20:00:04.719Z,11.47
2023-02-23T20:02:32.248Z,11.49
2023-02-23T20:04:59.648Z,11.47
2023-02-23T20:07:27.151Z,11.46
2023-02-23T20:09:54.621Z,11.43
2023-02-23T20:12:22.010Z,11.34
2023-02-23T20:14:49.573Z,11.16
2023-02-23T20:17:18.250Z,11.23
2023-02-23T20:19:45.616Z,11.24
2023-02-23T20:22:13.356Z,11.21
2023-02-23T20:24:40.845Z,11.12
2023-02-23T20:27:08.361Z,11.18
2023-02-23T20:29:35.959Z,11.24
2023-02-23T20:32:04.259Z,11.18
2023-02-23T20:34:35.556Z,11.18
2023-02-23T20:37:04.197Z,11.14
2023-02-23T20:39:31.638Z,11.15
2023-02-23T20:41:59.230Z,11.13
2023-02-23T20:44:28.029Z,11.21
2023-02-23T20:46:55.589Z,11.19
2023-02-23T20:49:25.071Z,11.19
2023-02-23T20:51:54.063Z,11.10
2023-02-23T20:54:22.027Z,11.07
2023-02-23T20:56:58.667Z,11.06
2023-02-23T20:59:29.876Z,11.01
2023-02-23T21:01:57.341Z,11.03
2023-02-23T21:04:24.841Z,11.01
2023-02-23T21:06:53.551Z,11.05
2023-02-23T21:09:22.922Z,11.09
2023-02-23T21:11:50.381Z,11.08
2023-02-23T21:14:18.828Z,10.95
2023-02-23T21:16:46.277Z,11.05
2023-02-23T21:19:14.651Z,10.89
2023-02-23T21:21:43.309Z,10.97
2023-02-23T21:24:13.323Z,10.90
2023-02-23T21:26:40.712Z,10.83
2023-02-23T21:29:11.697Z,10.95
2023-02-23T21:31:39.794Z,10.93
2023-02-23T21:34:09.300Z,10.70
2023-02-23T21:36:37.178Z,10.78
2023-02-23T21:39:04.824Z,10.84
2023-02-23T21:41:34.478Z,10.83
2023-02-23T21:44:02.637Z,10.92
2023-02-23T21:46:30.061Z,11.00
2023-02-23T21:48:57.506Z,10.83
2023-02-23T21:51:25.481Z,10.99
2023-02-23T21:53:57.849Z,10.79
2023-02-23T21:56:25.273Z,10.56
2023-02-23T21:58:56.647Z,10.60
2023-02-23T22:01:26.866Z,10.68
2023-02-23T22:03:55.006Z,10.62
2023-02-23T22:06:24.224Z,10.53
2023-02-23T22:08:51.844Z,10.59
2023-02-23T22:11:22.004Z,10.61
2023-02-23T22:13:51.286Z,10.48
2023-02-23T22:16:20.379Z,10.55
2023-02-23T22:18:48.485Z,10.63
2023-02-23T22:21:15.778Z,10.64
2023-02-23T22:23:47.755Z,10.42
2023-02-23T22:26:15.595Z,10.48
2023-02-23T22:28:43.110Z,10.33
2023-02-23T22:31:13.703Z,10.15
2023-02-23T22:33:44.554Z,10.25
2023-02-23T22:36:14.624Z,10.06
2023-02-23T22:38:42.490Z,10.01
2023-02-23T22:41:11.172Z,9.99
2023-02-23T22:43:38.865Z,10.06
2023-02-23T22:46:07.559Z,9.94
2023-02-23T22:48:36.699Z,10.00
2023-02-23T22:51:07.754Z,10.01
2023-02-23T22:53:35.168Z,9.90
2023-02-23T22:56:02.519Z,9.99
2023-02-23T22:58:31.472Z,9.87
2023-02-23T23:01:03.987Z,10.01
2023-02-23T23:03:33.891Z,9.96
2023-02-23T23:06:02.789Z,10.00
2023-02-23T23:08:36.382Z,10.02
2023-02-23T23:11:09.225Z,9.88
2023-02-23T23:13:40.335Z,9.88
2023-02-23T23:16:16.788Z,9.99
2023-02-23T23:18:54.805Z,9.95
2023-02-23T23:21:24.549Z,9.98
2023-02-23T23:23:56.501Z,10.06
2023-02-23T23:26:26.271Z,10.02
2023-02-23T23:28:56.111Z,9.92
2023-02-23T23:31:27.985Z,9.88
2023-02-23T23:33:59.802Z,9.87
2023-02-23T23:36:29.768Z,9.87
2023-02-23T23:38:59.517Z,9.87
2023-02-23T23:41:28.342Z,9.66
2023-02-23T23:43:58.073Z,9.75
2023-02-23T23:46:27.837Z,9.64
2023-02-23T23:48:57.899Z,9.77
2023-02-23T23:51:27.577Z,9.55
2023-02-23T23:53:55.555Z,9.81
2023-02-23T23:56:24.375Z,9.76
2023-02-23T23:58:53.709Z,9.64
